sensor_id;sensor_type;location;lat;lon;timestamp;temperature;humidity
58582;DHT22;44361;51.476;5.700;2022-08-21T00:00:09;14.30;99.90
58582;DHT22;44361;51.476;5.700;2022-08-21T00:02:36;14.30;99.90
58582;DHT22;44361;51.476;5.700;2022-08-21T00:05:03;14.30;99.90
58582;DHT22;44361;51.476;5.700;2022-08-21T00:07:29;14.20;99.90
58582;DHT22;44361;51.476;5.700;2022-08-21T00:09:54;14.20;99.90
58582;DHT22;44361;51.476;5.700;2022-08-21T00:12:20;14.20;99.90
58582;DHT22;44361;51.476;5.700;2022-08-21T00:14:46;14.20;99.90
58582;DHT22;44361;51.476;5.700;2022-08-21T00:17:12;14.10;99.90
58582;DHT22;44361;51.476;5.700;2022-08-21T00:19:37;14.10;99.90
58582;DHT22;44361;51.476;5.700;2022-08-21T00:22:03;14.10;99.90
58582;DHT22;44361;51.476;5.700;2022-08-21T00:24:29;14.20;99.90
58582;DHT22;44361;51.476;5.700;2022-08-21T00:26:54;14.10;99.90
58582;DHT22;44361;51.476;5.700;2022-08-21T00:29:20;14.10;99.90
58582;DHT22;44361;51.476;5.700;2022-08-21T00:31:46;14.00;99.90
58582;DHT22;44361;51.476;5.700;2022-08-21T00:34:12;14.00;99.90
58582;DHT22;44361;51.476;5.700;2022-08-21T00:36:39;14.00;99.90
58582;DHT22;44361;51.476;5.700;2022-08-21T00:39:07;14.00;99.90
58582;DHT22;44361;51.476;5.700;2022-08-21T00:41:34;13.90;99.90
58582;DHT22;44361;51.476;5.700;2022-08-21T00:44:00;13.90;99.90
58582;DHT22;44361;51.476;5.700;2022-08-21T00:46:26;13.90;99.90
58582;DHT22;44361;51.476;5.700;2022-08-21T00:48:51;13.80;99.90
58582;DHT22;44361;51.476;5.700;2022-08-21T00:51:20;13.80;99.90
58582;DHT22;44361;51.476;5.700;2022-08-21T00:53:51;13.80;99.90
58582;DHT22;44361;51.476;5.700;2022-08-21T00:56:19;13.80;99.90
58582;DHT22;44361;51.476;5.700;2022-08-21T00:58:46;13.70;99.90
58582;DHT22;44361;51.476;5.700;2022-08-21T01:01:13;13.70;99.90
58582;DHT22;44361;51.476;5.700;2022-08-21T01:03:38;13.70;99.90
58582;DHT22;44361;51.476;5.700;2022-08-21T01:06:05;13.70;99.90
58582;DHT22;44361;51.476;5.700;2022-08-21T01:08:32;13.60;99.90
58582;DHT22;44361;51.476;5.700;2022-08-21T01:10:58;13.70;99.90
58582;DHT22;44361;51.476;5.700;2022-08-21T01:13:25;13.70;99.90
58582;DHT22;44361;51.476;5.700;2022-08-21T01:15:54;13.70;99.90
58582;DHT22;44361;51.476;5.700;2022-08-21T01:18:21;13.60;99.90
58582;DHT22;44361;51.476;5.700;2022-08-21T01:21:12;13.60;99.90
58582;DHT22;44361;51.476;5.700;2022-08-21T01:23:41;13.60;99.90
58582;DHT22;44361;51.476;5.700;2022-08-21T01:26:08;13.60;99.90
58582;DHT22;44361;51.476;5.700;2022-08-21T01:28:44;13.60;99.90
58582;DHT22;44361;51.476;5.700;2022-08-21T01:31:13;13.60;99.90
58582;DHT22;44361;51.476;5.700;2022-08-21T01:33:39;13.60;99.90
58582;DHT22;44361;51.476;5.700;2022-08-21T01:36:05;13.60;99.90
58582;DHT22;44361;51.476;5.700;2022-08-21T01:38:31;13.60;99.90
58582;DHT22;44361;51.476;5.700;2022-08-21T01:40:57;13.50;99.90
58582;DHT22;44361;51.476;5.700;2022-08-21T01:43:23;13.50;99.90
58582;DHT22;44361;51.476;5.700;2022-08-21T01:45:49;13.40;99.90
58582;DHT22;44361;51.476;5.700;2022-08-21T01:48:14;13.40;99.90
58582;DHT22;44361;51.476;5.700;2022-08-21T01:50:40;13.40;99.90
58582;DHT22;44361;51.476;5.700;2022-08-21T01:53:05;13.40;99.90
58582;DHT22;44361;51.476;5.700;2022-08-21T01:55:31;13.30;99.90
58582;DHT22;44361;51.476;5.700;2022-08-21T01:57:57;13.30;99.90
58582;DHT22;44361;51.476;5.700;2022-08-21T02:00:24;13.30;99.90
58582;DHT22;44361;51.476;5.700;2022-08-21T02:02:49;13.30;99.90
58582;DHT22;44361;51.476;5.700;2022-08-21T02:05:15;13.20;99.90
58582;DHT22;44361;51.476;5.700;2022-08-21T02:07:44;13.10;99.90
58582;DHT22;44361;51.476;5.700;2022-08-21T02:10:14;13.10;99.90
58582;DHT22;44361;51.476;5.700;2022-08-21T02:12:39;13.10;99.90
58582;DHT22;44361;51.476;5.700;2022-08-21T02:15:06;13.10;99.90
58582;DHT22;44361;51.476;5.700;2022-08-21T02:17:44;13.00;99.90
58582;DHT22;44361;51.476;5.700;2022-08-21T02:20:20;13.00;99.90
58582;DHT22;44361;51.476;5.700;2022-08-21T02:22:45;13.00;99.90
58582;DHT22;44361;51.476;5.700;2022-08-21T02:25:11;13.00;99.90
58582;DHT22;44361;51.476;5.700;2022-08-21T02:27:41;13.00;99.90
58582;DHT22;44361;51.476;5.700;2022-08-21T02:30:12;13.00;99.90
58582;DHT22;44361;51.476;5.700;2022-08-21T02:32:39;13.00;99.90
58582;DHT22;44361;51.476;5.700;2022-08-21T02:35:05;13.00;99.90
58582;DHT22;44361;51.476;5.700;2022-08-21T02:37:31;13.00;99.90
58582;DHT22;44361;51.476;5.700;2022-08-21T02:39:58;12.90;99.90
58582;DHT22;44361;51.476;5.700;2022-08-21T02:42:24;12.90;99.90
58582;DHT22;44361;51.476;5.700;2022-08-21T02:44:49;12.90;99.90
58582;DHT22;44361;51.476;5.700;2022-08-21T02:47:15;12.80;99.90
58582;DHT22;44361;51.476;5.700;2022-08-21T02:49:40;12.80;99.90
58582;DHT22;44361;51.476;5.700;2022-08-21T02:52:06;12.80;99.90
58582;DHT22;44361;51.476;5.700;2022-08-21T02:54:31;12.70;99.90
58582;DHT22;44361;51.476;5.700;2022-08-21T02:56:57;12.70;99.90
58582;DHT22;44361;51.476;5.700;2022-08-21T02:59:23;12.60;99.90
58582;DHT22;44361;51.476;5.700;2022-08-21T03:01:48;12.60;99.90
58582;DHT22;44361;51.476;5.700;2022-08-21T03:04:14;12.60;99.90
58582;DHT22;44361;51.476;5.700;2022-08-21T03:06:39;12.60;99.90
58582;DHT22;44361;51.476;5.700;2022-08-21T03:09:05;12.50;99.90
58582;DHT22;44361;51.476;5.700;2022-08-21T03:11:31;12.50;99.90
58582;DHT22;44361;51.476;5.700;2022-08-21T03:13:56;12.50;99.90
58582;DHT22;44361;51.476;5.700;2022-08-21T03:16:22;12.50;99.90
58582;DHT22;44361;51.476;5.700;2022-08-21T03:18:47;12.60;99.90
58582;DHT22;44361;51.476;5.700;2022-08-21T03:21:13;12.60;99.90
58582;DHT22;44361;51.476;5.700;2022-08-21T03:23:38;12.70;99.90
58582;DHT22;44361;51.476;5.700;2022-08-21T03:26:06;12.60;99.90
58582;DHT22;44361;51.476;5.700;2022-08-21T03:28:31;12.70;99.90
58582;DHT22;44361;51.476;5.700;2022-08-21T03:30:58;12.60;99.90
58582;DHT22;44361;51.476;5.700;2022-08-21T03:33:24;12.70;99.90
58582;DHT22;44361;51.476;5.700;2022-08-21T03:36:03;12.80;99.90
58582;DHT22;44361;51.476;5.700;2022-08-21T03:38:31;12.80;99.90
58582;DHT22;44361;51.476;5.700;2022-08-21T03:40:57;12.80;99.90
58582;DHT22;44361;51.476;5.700;2022-08-21T03:43:23;12.70;99.90
58582;DHT22;44361;51.476;5.700;2022-08-21T03:45:49;12.70;99.90
58582;DHT22;44361;51.476;5.700;2022-08-21T03:48:14;12.70;99.90
58582;DHT22;44361;51.476;5.700;2022-08-21T03:50:42;12.70;99.90
58582;DHT22;44361;51.476;5.700;2022-08-21T03:53:10;12.60;99.90
58582;DHT22;44361;51.476;5.700;2022-08-21T03:55:36;12.60;99.90
58582;DHT22;44361;51.476;5.700;2022-08-21T03:58:02;12.60;99.90
58582;DHT22;44361;51.476;5.700;2022-08-21T04:00:28;12.50;99.90
58582;DHT22;44361;51.476;5.700;2022-08-21T04:02:54;12.50;99.90
58582;DHT22;44361;51.476;5.700;2022-08-21T04:05:20;12.50;99.90
58582;DHT22;44361;51.476;5.700;2022-08-21T04:08:01;12.40;99.90
58582;DHT22;44361;51.476;5.700;2022-08-21T04:10:30;12.40;99.90
58582;DHT22;44361;51.476;5.700;2022-08-21T04:12:56;12.30;99.90
58582;DHT22;44361;51.476;5.700;2022-08-21T04:15:25;12.30;99.90
58582;DHT22;44361;51.476;5.700;2022-08-21T04:17:50;12.30;99.90
58582;DHT22;44361;51.476;5.700;2022-08-21T04:20:17;12.30;99.90
58582;DHT22;44361;51.476;5.700;2022-08-21T04:22:43;12.30;99.90
58582;DHT22;44361;51.476;5.700;2022-08-21T04:25:10;12.20;99.90
58582;DHT22;44361;51.476;5.700;2022-08-21T04:27:35;12.20;99.90
58582;DHT22;44361;51.476;5.700;2022-08-21T04:30:02;12.20;99.90
58582;DHT22;44361;51.476;5.700;2022-08-21T04:32:27;12.10;99.90
58582;DHT22;44361;51.476;5.700;2022-08-21T04:35:04;12.10;99.90
58582;DHT22;44361;51.476;5.700;2022-08-21T04:37:30;12.10;99.90
58582;DHT22;44361;51.476;5.700;2022-08-21T04:39:55;12.20;99.90
58582;DHT22;44361;51.476;5.700;2022-08-21T04:42:26;12.20;99.90
58582;DHT22;44361;51.476;5.700;2022-08-21T04:44:53;12.20;99.90
58582;DHT22;44361;51.476;5.700;2022-08-21T04:47:19;12.10;99.90
58582;DHT22;44361;51.476;5.700;2022-08-21T04:49:45;12.10;99.90
58582;DHT22;44361;51.476;5.700;2022-08-21T04:52:11;12.10;99.90
58582;DHT22;44361;51.476;5.700;2022-08-21T04:54:39;12.10;99.90
58582;DHT22;44361;51.476;5.700;2022-08-21T04:57:06;12.20;99.90
58582;DHT22;44361;51.476;5.700;2022-08-21T04:59:38;12.20;99.90
58582;DHT22;44361;51.476;5.700;2022-08-21T05:02:05;12.30;99.90
58582;DHT22;44361;51.476;5.700;2022-08-21T05:04:33;12.40;99.90
58582;DHT22;44361;51.476;5.700;2022-08-21T05:07:02;12.40;99.90
58582;DHT22;44361;51.476;5.700;2022-08-21T05:09:28;12.50;99.90
58582;DHT22;44361;51.476;5.700;2022-08-21T05:11:55;12.50;99.90
58582;DHT22;44361;51.476;5.700;2022-08-21T05:14:21;12.50;99.90
58582;DHT22;44361;51.476;5.700;2022-08-21T05:16:47;12.50;99.90
58582;DHT22;44361;51.476;5.700;2022-08-21T05:19:13;12.50;99.90
58582;DHT22;44361;51.476;5.700;2022-08-21T05:21:41;12.50;99.90
58582;DHT22;44361;51.476;5.700;2022-08-21T05:24:07;12.60;99.90
58582;DHT22;44361;51.476;5.700;2022-08-21T05:26:33;12.60;99.90
58582;DHT22;44361;51.476;5.700;2022-08-21T05:28:59;12.70;99.90
58582;DHT22;44361;51.476;5.700;2022-08-21T05:31:25;12.80;99.90
58582;DHT22;44361;51.476;5.700;2022-08-21T05:33:51;12.80;99.90
58582;DHT22;44361;51.476;5.700;2022-08-21T05:36:18;12.90;99.90
58582;DHT22;44361;51.476;5.700;2022-08-21T05:38:43;13.00;99.90
58582;DHT22;44361;51.476;5.700;2022-08-21T05:41:09;13.00;99.90
58582;DHT22;44361;51.476;5.700;2022-08-21T05:43:35;13.10;99.90
58582;DHT22;44361;51.476;5.700;2022-08-21T05:46:02;13.10;99.90
58582;DHT22;44361;51.476;5.700;2022-08-21T05:48:28;13.30;99.90
58582;DHT22;44361;51.476;5.700;2022-08-21T05:50:53;13.40;99.90
58582;DHT22;44361;51.476;5.700;2022-08-21T05:53:21;13.50;99.90
58582;DHT22;44361;51.476;5.700;2022-08-21T05:55:48;13.80;99.90
58582;DHT22;44361;51.476;5.700;2022-08-21T05:58:16;13.90;99.90
58582;DHT22;44361;51.476;5.700;2022-08-21T06:00:42;13.90;99.90
58582;DHT22;44361;51.476;5.700;2022-08-21T06:03:14;13.90;99.90
58582;DHT22;44361;51.476;5.700;2022-08-21T06:05:42;14.00;99.90
58582;DHT22;44361;51.476;5.700;2022-08-21T06:08:07;14.50;99.90
58582;DHT22;44361;51.476;5.700;2022-08-21T06:10:33;15.00;99.90
58582;DHT22;44361;51.476;5.700;2022-08-21T06:12:59;15.40;99.90
58582;DHT22;44361;51.476;5.700;2022-08-21T06:15:24;15.80;99.90
58582;DHT22;44361;51.476;5.700;2022-08-21T06:17:52;16.20;99.90
58582;DHT22;44361;51.476;5.700;2022-08-21T06:20:18;16.20;99.90
58582;DHT22;44361;51.476;5.700;2022-08-21T06:22:43;16.40;99.90
58582;DHT22;44361;51.476;5.700;2022-08-21T06:25:09;16.60;99.90
58582;DHT22;44361;51.476;5.700;2022-08-21T06:27:35;16.70;99.90
58582;DHT22;44361;51.476;5.700;2022-08-21T06:30:02;16.80;99.90
58582;DHT22;44361;51.476;5.700;2022-08-21T06:32:27;16.90;99.90
58582;DHT22;44361;51.476;5.700;2022-08-21T06:34:53;16.80;99.90
58582;DHT22;44361;51.476;5.700;2022-08-21T06:37:18;16.90;99.90
58582;DHT22;44361;51.476;5.700;2022-08-21T06:39:44;17.00;99.90
58582;DHT22;44361;51.476;5.700;2022-08-21T06:42:17;17.30;99.90
58582;DHT22;44361;51.476;5.700;2022-08-21T06:44:42;17.30;99.90
58582;DHT22;44361;51.476;5.700;2022-08-21T06:47:08;17.30;99.90
58582;DHT22;44361;51.476;5.700;2022-08-21T06:49:34;17.40;99.90
58582;DHT22;44361;51.476;5.700;2022-08-21T06:52:00;17.40;99.90
58582;DHT22;44361;51.476;5.700;2022-08-21T06:54:26;17.40;99.90
58582;DHT22;44361;51.476;5.700;2022-08-21T06:56:51;17.40;99.90
58582;DHT22;44361;51.476;5.700;2022-08-21T06:59:17;17.40;99.90
58582;DHT22;44361;51.476;5.700;2022-08-21T07:01:43;17.50;99.90
58582;DHT22;44361;51.476;5.700;2022-08-21T07:04:09;17.50;99.90
58582;DHT22;44361;51.476;5.700;2022-08-21T07:06:35;17.50;99.90
58582;DHT22;44361;51.476;5.700;2022-08-21T07:09:00;17.60;99.90
58582;DHT22;44361;51.476;5.700;2022-08-21T07:11:27;17.70;99.90
58582;DHT22;44361;51.476;5.700;2022-08-21T07:13:52;17.60;99.90
58582;DHT22;44361;51.476;5.700;2022-08-21T07:16:20;17.70;99.90
58582;DHT22;44361;51.476;5.700;2022-08-21T07:18:46;17.80;99.90
58582;DHT22;44361;51.476;5.700;2022-08-21T07:21:12;18.10;99.90
58582;DHT22;44361;51.476;5.700;2022-08-21T07:23:44;18.20;99.90
58582;DHT22;44361;51.476;5.700;2022-08-21T07:26:11;18.30;99.90
58582;DHT22;44361;51.476;5.700;2022-08-21T07:28:37;18.40;99.90
58582;DHT22;44361;51.476;5.700;2022-08-21T07:31:03;18.60;99.90
58582;DHT22;44361;51.476;5.700;2022-08-21T07:33:32;18.80;99.90
58582;DHT22;44361;51.476;5.700;2022-08-21T07:35:58;19.00;99.90
58582;DHT22;44361;51.476;5.700;2022-08-21T07:38:23;19.20;99.90
58582;DHT22;44361;51.476;5.700;2022-08-21T07:40:51;19.30;99.90
58582;DHT22;44361;51.476;5.700;2022-08-21T07:43:18;19.40;99.90
58582;DHT22;44361;51.476;5.700;2022-08-21T07:45:44;19.50;99.90
58582;DHT22;44361;51.476;5.700;2022-08-21T07:48:10;19.40;99.90
58582;DHT22;44361;51.476;5.700;2022-08-21T07:50:36;19.40;99.90
58582;DHT22;44361;51.476;5.700;2022-08-21T07:53:01;19.40;99.90
58582;DHT22;44361;51.476;5.700;2022-08-21T07:55:28;19.40;99.90
58582;DHT22;44361;51.476;5.700;2022-08-21T07:57:53;19.20;99.90
58582;DHT22;44361;51.476;5.700;2022-08-21T08:00:21;19.10;99.90
58582;DHT22;44361;51.476;5.700;2022-08-21T08:02:49;19.20;99.90
58582;DHT22;44361;51.476;5.700;2022-08-21T08:05:17;19.50;99.90
58582;DHT22;44361;51.476;5.700;2022-08-21T08:07:42;19.80;99.90
58582;DHT22;44361;51.476;5.700;2022-08-21T08:10:10;20.00;99.90
58582;DHT22;44361;51.476;5.700;2022-08-21T08:12:38;20.20;99.90
58582;DHT22;44361;51.476;5.700;2022-08-21T08:15:07;20.20;99.90
58582;DHT22;44361;51.476;5.700;2022-08-21T08:17:33;20.30;99.90
58582;DHT22;44361;51.476;5.700;2022-08-21T08:19:59;20.40;99.90
58582;DHT22;44361;51.476;5.700;2022-08-21T08:22:27;20.20;99.90
58582;DHT22;44361;51.476;5.700;2022-08-21T08:24:53;20.30;99.90
58582;DHT22;44361;51.476;5.700;2022-08-21T08:27:19;20.30;99.90
58582;DHT22;44361;51.476;5.700;2022-08-21T08:29:45;20.50;99.90
58582;DHT22;44361;51.476;5.700;2022-08-21T08:32:10;20.70;99.90
58582;DHT22;44361;51.476;5.700;2022-08-21T08:34:37;20.50;99.90
58582;DHT22;44361;51.476;5.700;2022-08-21T08:37:06;20.40;99.90
58582;DHT22;44361;51.476;5.700;2022-08-21T08:39:32;20.30;99.90
58582;DHT22;44361;51.476;5.700;2022-08-21T08:42:13;20.40;99.90
58582;DHT22;44361;51.476;5.700;2022-08-21T08:44:47;20.60;99.90
58582;DHT22;44361;51.476;5.700;2022-08-21T08:47:15;20.70;99.90
58582;DHT22;44361;51.476;5.700;2022-08-21T08:50:06;20.80;99.90
58582;DHT22;44361;51.476;5.700;2022-08-21T08:52:37;20.90;99.90
58582;DHT22;44361;51.476;5.700;2022-08-21T08:55:21;20.80;99.90
58582;DHT22;44361;51.476;5.700;2022-08-21T08:57:50;20.90;99.90
58582;DHT22;44361;51.476;5.700;2022-08-21T09:00:19;21.10;99.90
58582;DHT22;44361;51.476;5.700;2022-08-21T09:02:47;21.40;99.90
58582;DHT22;44361;51.476;5.700;2022-08-21T09:08:32;21.90;99.90
58582;DHT22;44361;51.476;5.700;2022-08-21T09:11:13;22.00;99.90
58582;DHT22;44361;51.476;5.700;2022-08-21T09:13:50;22.20;99.90
58582;DHT22;44361;51.476;5.700;2022-08-21T09:27:16;21.70;99.90
58582;DHT22;44361;51.476;5.700;2022-08-21T09:29:45;21.60;99.90
58582;DHT22;44361;51.476;5.700;2022-08-21T09:32:27;21.60;99.90
58582;DHT22;44361;51.476;5.700;2022-08-21T09:35:04;21.60;99.90
58582;DHT22;44361;51.476;5.700;2022-08-21T09:37:32;21.50;99.90
58582;DHT22;44361;51.476;5.700;2022-08-21T09:39:59;21.40;99.90
58582;DHT22;44361;51.476;5.700;2022-08-21T09:42:31;21.40;99.90
58582;DHT22;44361;51.476;5.700;2022-08-21T09:45:13;21.40;99.90
58582;DHT22;44361;51.476;5.700;2022-08-21T09:47:41;21.40;99.90
58582;DHT22;44361;51.476;5.700;2022-08-21T09:52:47;21.40;99.90
58582;DHT22;44361;51.476;5.700;2022-08-21T09:55:29;21.70;99.90
58582;DHT22;44361;51.476;5.700;2022-08-21T09:58:16;21.60;99.90
58582;DHT22;44361;51.476;5.700;2022-08-21T10:00:42;21.60;99.90
58582;DHT22;44361;51.476;5.700;2022-08-21T10:03:18;21.70;99.90
58582;DHT22;44361;51.476;5.700;2022-08-21T10:05:55;22.20;99.90
58582;DHT22;44361;51.476;5.700;2022-08-21T10:08:23;22.60;99.90
58582;DHT22;44361;51.476;5.700;2022-08-21T10:10:54;22.70;99.90
58582;DHT22;44361;51.476;5.700;2022-08-21T10:16:08;23.10;99.90
58582;DHT22;44361;51.476;5.700;2022-08-21T10:21:35;23.00;99.90
58582;DHT22;44361;51.476;5.700;2022-08-21T10:29:55;22.60;99.90
58582;DHT22;44361;51.476;5.700;2022-08-21T10:40:52;23.10;99.90
58582;DHT22;44361;51.476;5.700;2022-08-21T10:43:38;23.80;99.90
58582;DHT22;44361;51.476;5.700;2022-08-21T10:46:22;24.10;99.00
58582;DHT22;44361;51.476;5.700;2022-08-21T10:49:11;24.50;98.50
58582;DHT22;44361;51.476;5.700;2022-08-21T10:51:44;24.40;98.00
58582;DHT22;44361;51.476;5.700;2022-08-21T10:56:47;24.00;98.40
58582;DHT22;44361;51.476;5.700;2022-08-21T11:02:03;23.30;98.90
58582;DHT22;44361;51.476;5.700;2022-08-21T11:04:52;23.50;98.90
58582;DHT22;44361;51.476;5.700;2022-08-21T11:07:32;23.70;97.40
58582;DHT22;44361;51.476;5.700;2022-08-21T11:10:03;24.10;97.20
58582;DHT22;44361;51.476;5.700;2022-08-21T11:12:52;24.20;97.30
58582;DHT22;44361;51.476;5.700;2022-08-21T11:15:37;24.50;96.10
58582;DHT22;44361;51.476;5.700;2022-08-21T11:21:25;24.60;95.90
58582;DHT22;44361;51.476;5.700;2022-08-21T11:26:48;24.50;96.20
58582;DHT22;44361;51.476;5.700;2022-08-21T11:29:27;24.30;94.60
58582;DHT22;44361;51.476;5.700;2022-08-21T11:35:03;24.40;94.70
58582;DHT22;44361;51.476;5.700;2022-08-21T11:45:55;24.50;95.00
58582;DHT22;44361;51.476;5.700;2022-08-21T11:48:40;24.30;94.20
58582;DHT22;44361;51.476;5.700;2022-08-21T11:51:20;24.50;94.50
58582;DHT22;44361;51.476;5.700;2022-08-21T11:57:00;24.80;94.60
58582;DHT22;44361;51.476;5.700;2022-08-21T11:59:47;24.50;94.20
58582;DHT22;44361;51.476;5.700;2022-08-21T12:02:19;24.70;94.60
58582;DHT22;44361;51.476;5.700;2022-08-21T12:04:54;24.50;94.30
58582;DHT22;44361;51.476;5.700;2022-08-21T12:07:37;24.50;94.50
58582;DHT22;44361;51.476;5.700;2022-08-21T12:10:15;24.30;93.90
58582;DHT22;44361;51.476;5.700;2022-08-21T12:12:43;24.80;93.50
58582;DHT22;44361;51.476;5.700;2022-08-21T12:15:26;25.30;92.80
58582;DHT22;44361;51.476;5.700;2022-08-21T12:23:16;26.00;90.70
58582;DHT22;44361;51.476;5.700;2022-08-21T12:28:44;26.80;90.20
58582;DHT22;44361;51.476;5.700;2022-08-21T12:31:21;26.60;86.20
58582;DHT22;44361;51.476;5.700;2022-08-21T12:34:13;26.30;87.10
58582;DHT22;44361;51.476;5.700;2022-08-21T12:37:03;25.70;84.50
58582;DHT22;44361;51.476;5.700;2022-08-21T12:39:32;25.00;87.40
58582;DHT22;44361;51.476;5.700;2022-08-21T12:42:05;24.60;87.60
58582;DHT22;44361;51.476;5.700;2022-08-21T12:44:46;24.40;88.80
58582;DHT22;44361;51.476;5.700;2022-08-21T12:50:11;24.50;88.00
58582;DHT22;44361;51.476;5.700;2022-08-21T12:52:45;24.80;89.90
58582;DHT22;44361;51.476;5.700;2022-08-21T12:55:15;25.30;87.10
58582;DHT22;44361;51.476;5.700;2022-08-21T12:57:42;25.40;87.30
58582;DHT22;44361;51.476;5.700;2022-08-21T13:00:10;25.30;86.70
58582;DHT22;44361;51.476;5.700;2022-08-21T13:02:47;25.30;87.30
58582;DHT22;44361;51.476;5.700;2022-08-21T13:05:16;25.50;87.00
58582;DHT22;44361;51.476;5.700;2022-08-21T13:07:47;25.50;86.50
58582;DHT22;44361;51.476;5.700;2022-08-21T13:10:23;25.50;84.70
58582;DHT22;44361;51.476;5.700;2022-08-21T13:12:50;25.30;86.00
58582;DHT22;44361;51.476;5.700;2022-08-21T13:15:23;25.50;86.20
58582;DHT22;44361;51.476;5.700;2022-08-21T13:17:50;25.80;85.40
58582;DHT22;44361;51.476;5.700;2022-08-21T13:20:23;26.00;83.40
58582;DHT22;44361;51.476;5.700;2022-08-21T13:22:49;26.00;82.50
58582;DHT22;44361;51.476;5.700;2022-08-21T13:25:18;25.90;81.70
58582;DHT22;44361;51.476;5.700;2022-08-21T13:27:56;25.70;85.00
58582;DHT22;44361;51.476;5.700;2022-08-21T13:30:22;25.60;84.80
58582;DHT22;44361;51.476;5.700;2022-08-21T13:32:51;25.50;84.60
58582;DHT22;44361;51.476;5.700;2022-08-21T13:35:35;25.70;84.80
58582;DHT22;44361;51.476;5.700;2022-08-21T13:38:03;25.70;84.70
58582;DHT22;44361;51.476;5.700;2022-08-21T13:40:44;25.60;85.30
58582;DHT22;44361;51.476;5.700;2022-08-21T13:43:17;25.60;84.40
58582;DHT22;44361;51.476;5.700;2022-08-21T13:45:47;25.80;83.80
58582;DHT22;44361;51.476;5.700;2022-08-21T13:48:13;26.10;82.00
58582;DHT22;44361;51.476;5.700;2022-08-21T13:50:41;26.20;79.60
58582;DHT22;44361;51.476;5.700;2022-08-21T13:53:19;26.20;80.40
58582;DHT22;44361;51.476;5.700;2022-08-21T13:55:47;25.90;80.50
58582;DHT22;44361;51.476;5.700;2022-08-21T13:58:24;25.50;82.30
58582;DHT22;44361;51.476;5.700;2022-08-21T14:00:51;25.70;82.20
58582;DHT22;44361;51.476;5.700;2022-08-21T14:03:36;25.50;83.60
58582;DHT22;44361;51.476;5.700;2022-08-21T14:06:12;25.50;82.50
58582;DHT22;44361;51.476;5.700;2022-08-21T14:08:40;25.70;82.40
58582;DHT22;44361;51.476;5.700;2022-08-21T14:11:11;25.60;82.50
58582;DHT22;44361;51.476;5.700;2022-08-21T14:13:43;25.50;82.90
58582;DHT22;44361;51.476;5.700;2022-08-21T14:16:23;25.50;83.20
58582;DHT22;44361;51.476;5.700;2022-08-21T14:21:27;25.60;84.50
58582;DHT22;44361;51.476;5.700;2022-08-21T14:24:11;25.50;84.70
58582;DHT22;44361;51.476;5.700;2022-08-21T14:26:48;25.70;83.60
58582;DHT22;44361;51.476;5.700;2022-08-21T14:29:16;25.80;81.70
58582;DHT22;44361;51.476;5.700;2022-08-21T14:31:48;25.60;80.30
58582;DHT22;44361;51.476;5.700;2022-08-21T14:34:14;25.80;80.90
58582;DHT22;44361;51.476;5.700;2022-08-21T14:36:42;25.90;82.20
58582;DHT22;44361;51.476;5.700;2022-08-21T14:39:08;25.70;81.80
58582;DHT22;44361;51.476;5.700;2022-08-21T14:41:34;25.60;82.80
58582;DHT22;44361;51.476;5.700;2022-08-21T14:44:02;25.40;82.00
58582;DHT22;44361;51.476;5.700;2022-08-21T14:46:30;25.50;82.00
58582;DHT22;44361;51.476;5.700;2022-08-21T14:48:57;25.80;81.80
58582;DHT22;44361;51.476;5.700;2022-08-21T14:51:23;26.00;80.10
58582;DHT22;44361;51.476;5.700;2022-08-21T14:53:48;26.00;80.40
58582;DHT22;44361;51.476;5.700;2022-08-21T14:56:14;25.80;80.80
58582;DHT22;44361;51.476;5.700;2022-08-21T14:58:46;25.90;81.10
58582;DHT22;44361;51.476;5.700;2022-08-21T15:01:15;25.90;80.60
58582;DHT22;44361;51.476;5.700;2022-08-21T15:03:41;25.80;80.50
58582;DHT22;44361;51.476;5.700;2022-08-21T15:06:08;25.70;79.90
58582;DHT22;44361;51.476;5.700;2022-08-21T15:08:34;25.70;81.20
58582;DHT22;44361;51.476;5.700;2022-08-21T15:11:01;25.60;80.70
58582;DHT22;44361;51.476;5.700;2022-08-21T15:13:28;25.30;81.10
58582;DHT22;44361;51.476;5.700;2022-08-21T15:15:54;25.30;82.40
58582;DHT22;44361;51.476;5.700;2022-08-21T15:18:22;25.40;81.70
58582;DHT22;44361;51.476;5.700;2022-08-21T15:20:48;25.40;81.50
58582;DHT22;44361;51.476;5.700;2022-08-21T15:23:15;25.40;82.10
58582;DHT22;44361;51.476;5.700;2022-08-21T15:25:43;25.60;81.40
58582;DHT22;44361;51.476;5.700;2022-08-21T15:28:10;25.50;82.30
58582;DHT22;44361;51.476;5.700;2022-08-21T15:30:37;25.40;81.10
58582;DHT22;44361;51.476;5.700;2022-08-21T15:33:03;25.30;81.20
58582;DHT22;44361;51.476;5.700;2022-08-21T15:35:28;25.40;82.90
58582;DHT22;44361;51.476;5.700;2022-08-21T15:37:54;25.30;82.30
58582;DHT22;44361;51.476;5.700;2022-08-21T15:40:20;25.30;82.70
58582;DHT22;44361;51.476;5.700;2022-08-21T15:42:45;25.30;83.70
58582;DHT22;44361;51.476;5.700;2022-08-21T15:45:12;25.30;82.60
58582;DHT22;44361;51.476;5.700;2022-08-21T15:47:43;25.20;83.30
58582;DHT22;44361;51.476;5.700;2022-08-21T15:50:09;25.20;83.00
58582;DHT22;44361;51.476;5.700;2022-08-21T15:52:36;24.90;83.90
58582;DHT22;44361;51.476;5.700;2022-08-21T15:55:03;24.90;84.50
58582;DHT22;44361;51.476;5.700;2022-08-21T15:57:29;24.80;83.90
58582;DHT22;44361;51.476;5.700;2022-08-21T15:59:59;24.70;84.20
58582;DHT22;44361;51.476;5.700;2022-08-21T16:02:31;24.60;84.80
58582;DHT22;44361;51.476;5.700;2022-08-21T16:04:57;24.60;84.90
58582;DHT22;44361;51.476;5.700;2022-08-21T16:07:23;24.50;85.20
58582;DHT22;44361;51.476;5.700;2022-08-21T16:09:49;24.30;85.70
58582;DHT22;44361;51.476;5.700;2022-08-21T16:12:27;24.20;85.50
58582;DHT22;44361;51.476;5.700;2022-08-21T16:14:54;24.20;85.40
58582;DHT22;44361;51.476;5.700;2022-08-21T16:17:26;24.20;85.80
58582;DHT22;44361;51.476;5.700;2022-08-21T16:19:52;24.10;86.10
58582;DHT22;44361;51.476;5.700;2022-08-21T16:22:18;24.20;87.10
58582;DHT22;44361;51.476;5.700;2022-08-21T16:24:43;24.10;86.30
58582;DHT22;44361;51.476;5.700;2022-08-21T16:27:09;24.00;86.90
58582;DHT22;44361;51.476;5.700;2022-08-21T16:29:36;24.00;87.00
58582;DHT22;44361;51.476;5.700;2022-08-21T16:32:02;23.80;87.60
58582;DHT22;44361;51.476;5.700;2022-08-21T16:34:29;23.90;88.00
58582;DHT22;44361;51.476;5.700;2022-08-21T16:36:56;24.00;87.50
58582;DHT22;44361;51.476;5.700;2022-08-21T16:39:21;24.10;88.30
58582;DHT22;44361;51.476;5.700;2022-08-21T16:41:47;24.30;87.10
58582;DHT22;44361;51.476;5.700;2022-08-21T16:44:17;24.60;86.70
58582;DHT22;44361;51.476;5.700;2022-08-21T16:46:43;24.80;86.90
58582;DHT22;44361;51.476;5.700;2022-08-21T16:49:09;24.60;86.40
58582;DHT22;44361;51.476;5.700;2022-08-21T16:51:36;24.30;87.20
58582;DHT22;44361;51.476;5.700;2022-08-21T16:54:02;24.30;86.90
58582;DHT22;44361;51.476;5.700;2022-08-21T16:56:28;24.30;87.90